Time;durP1;ratioP1;P1;durP2;ratioP2;P2;SDS_P1;SDS_P2;PMS_P1;PMS_P2;Temp;Humidity;BMP_temperature;BMP_pressure;BME280_temperature;BME280_humidity;BME280_pressure;Samples;Min_cycle;Max_cycle;Signal;HPM_P1;HPM_P2
2022/05/06 00:00:55;;;;;;;9.43;5.80;;;11.80;99.90;;;;;;4208918;28;20070;-57
2022/05/06 00:02:56;;;;;;;7.73;4.83;;;11.80;99.90;;;;;;4213627;28;20083;-54
2022/05/06 00:04:57;;;;;;;10.77;4.97;;;11.80;99.90;;;;;;4221575;28;20073;-56
2022/05/06 00:06:59;;;;;;;6.60;5.00;;;11.80;99.90;;;;;;4207999;28;20020;-48
2022/05/06 00:09:00;;;;;;;7.17;4.43;;;11.90;99.90;;;;;;4215595;28;20048;-58
2022/05/06 00:11:08;;;;;;;5.83;4.87;;;11.90;99.90;;;;;;4224168;28;20124;-58
2022/05/06 00:13:09;;;;;;;5.50;4.40;;;11.90;99.90;;;;;;4224788;28;20741;-55
2022/05/06 00:15:11;;;;;;;9.17;5.03;;;11.90;99.90;;;;;;4209064;28;20039;-55
2022/05/06 00:17:13;;;;;;;7.37;4.57;;;11.90;99.90;;;;;;4224976;27;20047;-55
2022/05/06 00:19:14;;;;;;;7.30;4.70;;;11.90;99.90;;;;;;4225351;28;20483;-52
2022/05/06 00:21:15;;;;;;;7.77;4.33;;;11.90;99.90;;;;;;4220445;28;20066;-53
2022/05/06 00:23:16;;;;;;;6.70;4.77;;;11.90;99.90;;;;;;4208299;28;20109;-52
2022/05/06 00:25:18;;;;;;;4.63;4.20;;;11.90;99.90;;;;;;4208152;28;20032;-56
2022/05/06 00:27:19;;;;;;;6.80;4.97;;;11.90;99.90;;;;;;4209994;28;20097;-53
2022/05/06 00:29:20;;;;;;;5.40;3.80;;;11.90;99.90;;;;;;4207148;28;20442;-51
2022/05/06 00:31:21;;;;;;;7.17;4.57;;;11.90;99.90;;;;;;4211844;28;20040;-57
2022/05/06 00:33:24;;;;;;;8.70;5.00;;;11.90;99.90;;;;;;4207323;28;20073;-56
2022/05/06 00:35:25;;;;;;;5.57;4.47;;;11.90;99.90;;;;;;4210828;28;20028;-53
2022/05/06 00:37:27;;;;;;;5.40;4.17;;;11.90;99.90;;;;;;4207570;28;20085;-51
2022/05/06 00:39:28;;;;;;;6.00;4.33;;;11.90;99.90;;;;;;4208030;28;20036;-51
2022/05/06 00:41:34;;;;;;;5.03;3.80;;;11.90;99.90;;;;;;4207593;28;20373;-53
2022/05/06 00:43:41;;;;;;;5.47;4.03;;;11.90;99.90;;;;;;4207654;28;20580;-57
2022/05/06 00:45:55;;;;;;;7.43;4.10;;;11.90;99.90;;;;;;4209404;28;20868;-53
2022/05/06 00:47:59;;;;;;;6.77;4.73;;;11.90;99.90;;;;;;4221169;28;20043;-53
2022/05/06 00:50:03;;;;;;;5.67;4.30;;;12.00;99.90;;;;;;4222895;28;20527;-71
2022/05/06 00:52:05;;;;;;;6.83;4.10;;;12.00;99.90;;;;;;4207510;28;20044;-52
2022/05/06 00:54:07;;;;;;;6.37;4.10;;;11.90;99.90;;;;;;4207624;28;20477;-57
2022/05/06 00:56:09;;;;;;;4.80;4.13;;;11.90;99.90;;;;;;4207832;28;20514;-56
2022/05/06 00:58:10;;;;;;;5.00;4.20;;;12.00;99.90;;;;;;4210519;28;20082;-54
2022/05/06 01:00:18;;;;;;;4.60;3.73;;;12.00;99.90;;;;;;4223386;28;20101;-51
2022/05/06 01:02:20;;;;;;;5.33;4.47;;;12.00;99.90;;;;;;4222606;28;20056;-52
2022/05/06 01:04:22;;;;;;;6.07;4.80;;;12.00;99.90;;;;;;4219806;28;20040;-50
2022/05/06 01:06:24;;;;;;;6.30;4.47;;;12.00;99.90;;;;;;4207385;28;20454;-63
2022/05/06 01:08:25;;;;;;;4.03;3.63;;;12.00;99.90;;;;;;4207451;28;20032;-55
2022/05/06 01:10:26;;;;;;;9.13;4.07;;;12.00;99.90;;;;;;4207500;28;20044;-55
2022/05/06 01:12:27;;;;;;;4.93;4.00;;;12.00;99.90;;;;;;4206656;28;20144;-56
2022/05/06 01:14:35;;;;;;;5.07;3.97;;;12.00;99.90;;;;;;4207951;28;20044;-56
2022/05/06 01:16:36;;;;;;;5.37;4.33;;;12.00;99.90;;;;;;4207927;28;20084;-55
2022/05/06 01:18:38;;;;;;;6.27;4.30;;;11.90;99.90;;;;;;4218849;28;20040;-65
2022/05/06 01:20:48;;;;;;;6.00;4.90;;;11.90;99.90;;;;;;4206770;28;20024;-54
2022/05/06 01:22:51;;;;;;;5.65;4.40;;;11.80;99.90;;;;;;4210225;28;20881;-55
2022/05/06 01:24:53;;;;;;;5.90;4.60;;;11.80;99.90;;;;;;4205722;28;20032;-54
2022/05/06 01:27:17;;;;;;;6.53;4.27;;;11.70;99.90;;;;;;4213403;28;20456;-53
2022/05/06 01:29:21;;;;;;;7.33;4.27;;;11.70;99.90;;;;;;4206533;28;20065;-57
2022/05/06 01:31:26;;;;;;;5.07;3.93;;;11.70;99.90;;;;;;4205897;28;20032;-54
2022/05/06 01:33:31;;;;;;;8.77;4.33;;;11.60;99.90;;;;;;4207085;28;20032;-53
2022/05/06 01:35:46;;;;;;;10.20;4.37;;;11.60;99.90;;;;;;4206004;28;20786;-58
2022/05/06 01:37:50;;;;;;;6.13;3.90;;;11.60;99.90;;;;;;4218889;28;20429;-55
2022/05/06 01:39:58;;;;;;;9.47;4.43;;;11.50;99.90;;;;;;4207929;28;20048;-65
2022/05/06 01:42:06;;;;;;;5.57;4.00;;;11.50;99.90;;;;;;4222306;28;20140;-54
2022/05/06 01:44:09;;;;;;;4.23;3.83;;;11.50;99.90;;;;;;4217776;28;20056;-51
2022/05/06 01:46:13;;;;;;;7.30;4.03;;;11.40;99.90;;;;;;4206354;28;20488;-52
2022/05/06 01:48:16;;;;;;;5.50;4.27;;;11.40;99.90;;;;;;4206739;28;20036;-53
2022/05/06 01:50:20;;;;;;;5.63;4.17;;;11.40;99.90;;;;;;4205983;28;20441;-56
2022/05/06 01:52:24;;;;;;;5.37;4.10;;;11.30;99.90;;;;;;4205934;28;20085;-52
2022/05/06 01:54:26;;;;;;;8.60;4.40;;;11.30;99.90;;;;;;4216207;28;20089;-54
2022/05/06 01:56:28;;;;;;;5.30;3.97;;;11.30;99.90;;;;;;4215873;28;20128;-57
2022/05/06 01:58:29;;;;;;;11.83;4.33;;;11.30;99.90;;;;;;4206705;28;20262;-64
2022/05/06 02:00:30;;;;;;;8.77;5.27;;;11.20;99.90;;;;;;4206387;28;20066;-56
2022/05/06 02:02:31;;;;;;;6.00;5.20;;;11.10;99.90;;;;;;4206769;28;20040;-56
2022/05/06 02:06:52;;;;;;;9.27;6.23;;;10.90;99.90;;;;;;4206560;28;20089;-54
2022/05/06 02:08:53;;;;;;;10.23;6.57;;;10.80;99.90;;;;;;4210712;28;20031;-50
2022/05/06 02:10:54;;;;;;;7.90;5.40;;;10.80;99.90;;;;;;4222897;28;20035;-55
2022/05/06 02:12:56;;;;;;;7.83;5.93;;;10.70;99.90;;;;;;4220000;28;20044;-51
2022/05/06 02:14:57;;;;;;;8.70;5.73;;;10.70;99.90;;;;;;4221930;28;20076;-60
2022/05/06 02:16:58;;;;;;;9.20;6.17;;;10.60;99.90;;;;;;4219939;28;20035;-53
2022/05/06 02:18:59;;;;;;;11.00;6.30;;;10.70;99.90;;;;;;4220717;28;20044;-68
2022/05/06 02:21:02;;;;;;;16.43;6.43;;;10.70;99.90;;;;;;4205511;28;20032;-52
2022/05/06 02:23:03;;;;;;;10.60;6.90;;;10.70;99.90;;;;;;4166542;28;1117104;-52
2022/05/06 02:25:09;;;;;;;6.70;5.67;;;10.60;99.90;;;;;;4212430;28;20035;-54
2022/05/06 02:27:12;;;;;;;8.23;6.50;;;10.60;99.90;;;;;;4222572;28;20063;-55
2022/05/06 02:29:13;;;;;;;8.40;5.97;;;10.50;99.90;;;;;;4222168;28;20083;-52
2022/05/06 02:33:34;;;;;;;10.75;6.22;;;10.30;99.90;;;;;;4214549;28;20097;-54
2022/05/06 02:35:36;;;;;;;10.60;7.03;;;10.20;99.90;;;;;;4205816;28;20058;-52
2022/05/06 02:37:37;;;;;;;15.03;7.27;;;10.10;99.90;;;;;;4205828;28;20077;-56
2022/05/06 02:39:39;;;;;;;10.53;6.47;;;10.10;99.90;;;;;;4205728;28;20028;-56
2022/05/06 02:41:40;;;;;;;12.53;6.30;;;10.10;99.90;;;;;;4219769;28;20080;-51
2022/05/06 02:43:42;;;;;;;12.17;6.67;;;10.00;99.90;;;;;;4222361;28;20047;-57
2022/05/06 02:45:43;;;;;;;11.60;6.93;;;10.00;99.90;;;;;;4221990;28;20031;-59
2022/05/06 02:47:45;;;;;;;8.80;6.37;;;10.00;99.90;;;;;;4222025;28;20028;-57
2022/05/06 02:49:46;;;;;;;9.10;6.30;;;10.10;99.90;;;;;;4223159;28;20040;-57
2022/05/06 02:51:49;;;;;;;10.13;6.43;;;10.10;99.90;;;;;;4220504;28;20031;-55
2022/05/06 02:53:50;;;;;;;8.73;6.40;;;10.00;99.90;;;;;;4211140;28;20541;-52
2022/05/06 02:55:51;;;;;;;9.67;6.70;;;10.00;99.90;;;;;;4205048;28;20036;-56
2022/05/06 02:57:52;;;;;;;10.43;7.10;;;9.90;99.90;;;;;;4205735;28;20456;-55
2022/05/06 02:59:53;;;;;;;12.00;7.63;;;9.90;99.90;;;;;;4205272;28;20544;-53
2022/05/06 03:01:54;;;;;;;13.00;7.53;;;9.80;99.90;;;;;;4205898;28;20023;-53
2022/05/06 03:03:56;;;;;;;13.53;7.53;;;9.80;99.90;;;;;;4207373;28;20048;-63
2022/05/06 03:05:57;;;;;;;17.27;8.07;;;9.70;99.90;;;;;;4205459;28;20024;-63
2022/05/06 03:07:58;;;;;;;18.07;9.30;;;9.70;99.90;;;;;;4205772;28;20028;-51
2022/05/06 03:09:59;;;;;;;14.33;7.50;;;9.70;99.90;;;;;;4220556;28;20040;-50
2022/05/06 03:12:01;;;;;;;14.40;8.57;;;9.70;99.90;;;;;;4205952;28;20078;-68
2022/05/06 03:14:02;;;;;;;18.40;8.67;;;9.80;99.90;;;;;;4203450;28;20141;-55
2022/05/06 03:16:03;;;;;;;15.47;7.90;;;10.00;99.90;;;;;;4206025;28;20070;-61
2022/05/06 03:18:04;;;;;;;13.63;7.20;;;10.00;99.90;;;;;;4206126;28;20048;-52
2022/05/06 03:20:08;;;;;;;14.57;7.10;;;10.10;99.90;;;;;;4205973;28;20093;-53
2022/05/06 03:22:09;;;;;;;11.77;7.20;;;10.20;99.90;;;;;;4205091;28;20048;-66
2022/05/06 03:24:11;;;;;;;16.50;8.03;;;10.20;99.90;;;;;;4217717;28;20081;-52
2022/05/06 03:26:12;;;;;;;8.50;7.03;;;10.20;99.90;;;;;;4214279;28;20063;-54
2022/05/06 03:28:14;;;;;;;13.83;7.93;;;10.30;99.90;;;;;;4206528;28;20633;-59
2022/05/06 03:30:15;;;;;;;16.37;8.10;;;10.40;99.90;;;;;;4206962;28;20561;-56
2022/05/06 03:32:16;;;;;;;16.93;7.90;;;10.60;99.90;;;;;;4206553;28;20031;-54
2022/05/06 03:34:19;;;;;;;15.63;8.20;;;10.70;99.90;;;;;;4204863;28;20113;-60
2022/05/06 03:36:21;;;;;;;14.97;8.33;;;10.90;99.90;;;;;;4206121;28;20569;-52
2022/05/06 03:38:22;;;;;;;16.03;8.67;;;11.20;99.90;;;;;;4205399;28;20105;-52
2022/05/06 03:40:23;;;;;;;15.80;9.27;;;11.20;99.90;;;;;;4208034;28;20054;-52
2022/05/06 03:42:25;;;;;;;21.00;8.37;;;11.20;99.90;;;;;;4213008;28;20043;-56
2022/05/06 03:44:26;;;;;;;16.20;8.10;;;11.20;99.90;;;;;;4213171;28;20061;-61
2022/05/06 03:46:27;;;;;;;15.73;8.10;;;11.20;99.90;;;;;;4210630;28;20137;-55
2022/05/06 03:48:28;;;;;;;15.50;8.93;;;11.10;99.90;;;;;;4203839;28;20040;-52
2022/05/06 03:52:50;;;;;;;14.20;7.90;;;10.90;99.90;;;;;;4204906;28;20101;-56
2022/05/06 03:54:52;;;;;;;12.87;7.07;;;10.80;99.90;;;;;;4205521;28;20028;-56
2022/05/06 03:56:53;;;;;;;15.77;8.20;;;11.00;99.90;;;;;;4204291;28;20044;-57
2022/05/06 03:58:55;;;;;;;9.53;7.07;;;11.40;99.90;;;;;;4205906;28;20488;-55
2022/05/06 04:00:56;;;;;;;10.90;7.60;;;12.00;99.90;;;;;;4211268;28;20023;-55
2022/05/06 04:02:57;;;;;;;12.77;7.70;;;12.50;99.90;;;;;;4222180;28;20081;-58
2022/05/06 04:04:58;;;;;;;18.17;8.17;;;13.10;99.90;;;;;;4220297;28;20104;-56
2022/05/06 04:06:59;;;;;;;18.73;8.97;;;13.50;99.90;;;;;;4215996;28;20446;-62
2022/05/06 04:09:00;;;;;;;16.27;8.60;;;13.70;99.90;;;;;;4204601;28;20058;-55
2022/05/06 04:11:02;;;;;;;18.77;9.30;;;13.80;99.90;;;;;;4204106;28;20047;-54
2022/05/06 04:13:03;;;;;;;28.43;9.53;;;13.90;99.90;;;;;;4212288;28;20036;-56
2022/05/06 04:15:06;;;;;;;22.60;9.57;;;14.10;99.90;;;;;;4221096;28;20040;-59
2022/05/06 04:17:07;;;;;;;21.23;8.53;;;14.20;99.90;;;;;;4221033;28;20616;-55
2022/05/06 04:19:08;;;;;;;16.77;9.20;;;14.30;99.90;;;;;;4220671;28;20043;-60
2022/05/06 04:23:30;;;;;;;15.20;8.52;;;14.70;99.90;;;;;;4221070;28;20789;-53
2022/05/06 04:25:32;;;;;;;19.57;9.03;;;15.10;99.90;;;;;;4221026;28;20543;-52
2022/05/06 04:27:33;;;;;;;15.90;9.07;;;15.40;99.90;;;;;;4215871;28;20090;-54
2022/05/06 04:29:34;;;;;;;14.13;7.93;;;16.10;99.90;;;;;;4221111;28;20047;-55
2022/05/06 04:31:36;;;;;;;16.47;8.77;;;16.50;99.90;;;;;;4213233;28;20039;-58
2022/05/06 04:33:39;;;;;;;14.77;9.07;;;16.30;99.90;;;;;;4204351;28;20052;-55
2022/05/06 04:35:43;;;;;;;10.80;7.28;;;16.20;99.90;;;;;;4204083;28;20028;-55
2022/05/06 04:37:44;;;;;;;16.20;7.28;;;16.40;99.90;;;;;;4204791;28;20089;-58
2022/05/06 04:39:45;;;;;;;14.25;7.70;;;16.90;99.90;;;;;;4206263;28;20028;-56
2022/05/06 04:41:48;;;;;;;12.15;6.78;;;17.20;99.90;;;;;;4208154;28;20946;-63
2022/05/06 04:43:49;;;;;;;18.30;7.53;;;17.30;99.90;;;;;;4205497;28;20044;-60
2022/05/06 04:45:50;;;;;;;13.02;6.90;;;17.40;99.90;;;;;;4233745;27;20151;-63
2022/05/06 04:47:52;;;;;;;15.48;7.38;;;17.40;99.90;;;;;;4228837;27;20031;-58
2022/05/06 04:49:53;;;;;;;10.95;6.93;;;17.30;99.90;;;;;;4228675;27;20823;-59
2022/05/06 04:51:54;;;;;;;16.65;9.48;;;17.50;99.90;;;;;;4236409;27;20049;-54
2022/05/06 04:53:55;;;;;;;19.08;9.65;;;17.70;99.90;;;;;;4230142;27;20035;-70
2022/05/06 04:55:56;;;;;;;19.15;9.48;;;17.40;99.90;;;;;;4229359;27;20492;-57
2022/05/06 04:57:57;;;;;;;16.52;8.35;;;17.30;99.90;;;;;;4226945;27;20472;-57
2022/05/06 04:59:58;;;;;;;19.83;8.35;;;17.50;99.90;;;;;;4230200;27;20077;-63
2022/05/06 05:02:00;;;;;;;17.52;9.40;;;17.60;99.90;;;;;;4206728;28;20040;-66
2022/05/06 05:04:01;;;;;;;17.30;9.07;;;17.60;99.90;;;;;;4207768;28;20081;-58
2022/05/06 05:06:03;;;;;;;12.90;9.27;;;18.00;99.90;;;;;;4206197;28;20797;-54
2022/05/06 05:08:04;;;;;;;17.75;8.77;;;18.30;99.90;;;;;;4207275;28;20024;-60
2022/05/06 05:10:06;;;;;;;16.48;9.10;;;18.30;99.90;;;;;;4206493;28;20089;-60
2022/05/06 05:12:08;;;;;;;15.73;9.38;;;18.30;99.90;;;;;;4207163;28;20530;-57
2022/05/06 05:14:09;;;;;;;18.88;8.60;;;18.30;99.90;;;;;;4206087;28;20036;-54
2022/05/06 05:16:10;;;;;;;15.95;9.65;;;18.60;99.90;;;;;;4206661;28;20047;-58
2022/05/06 05:18:11;;;;;;;16.73;10.23;;;19.00;99.50;;;;;;4206560;28;20040;-54
2022/05/06 05:20:13;;;;;;;13.48;8.98;;;18.90;98.90;;;;;;4206355;28;20028;-56
2022/05/06 05:22:14;;;;;;;15.13;9.50;;;19.20;98.60;;;;;;4206142;28;20044;-57
2022/05/06 05:24:15;;;;;;;12.68;8.95;;;19.20;98.20;;;;;;4205988;28;20568;-57
2022/05/06 05:26:17;;;;;;;22.35;9.70;;;19.10;98.00;;;;;;4206503;28;20051;-56
2022/05/06 05:28:18;;;;;;;14.43;8.75;;;19.40;98.00;;;;;;4206581;28;20541;-55
2022/05/06 05:30:19;;;;;;;15.00;9.35;;;20.00;97.10;;;;;;4206165;28;20043;-55
2022/05/06 05:32:21;;;;;;;19.67;8.80;;;20.60;96.20;;;;;;4206237;28;20037;-59
2022/05/06 05:34:22;;;;;;;14.18;8.68;;;;;;;;;;4206169;28;20553;-55
2022/05/06 05:36:23;;;;;;;14.10;9.15;;;;;;;;;;4205934;28;20052;-58
2022/05/06 05:38:25;;;;;;;13.00;8.18;;;;;;;;;;4206553;28;20047;-62
2022/05/06 05:40:26;;;;;;;14.80;8.40;;;;;;;;;;4204193;28;20097;-56
2022/05/06 05:42:28;;;;;;;12.98;7.60;;;;;;;;;;4206745;28;20040;-54
2022/05/06 05:49:10;;;;;;;12.70;7.72;;;;;;;;;;4205804;28;20425;-58
2022/05/06 05:51:11;;;;;;;13.50;7.47;;;21.70;91.90;;;;;;4205595;28;20032;-59
2022/05/06 05:53:12;;;;;;;9.18;6.72;;;20.90;91.50;;;;;;4205463;28;20044;-62
2022/05/06 05:55:14;;;;;;;10.80;6.88;;;20.20;92.00;;;;;;4205837;28;20564;-67
2022/05/06 05:57:15;;;;;;;16.25;6.90;;;20.10;92.30;;;;;;4205429;28;20668;-61
2022/05/06 05:59:17;;;;;;;11.75;6.70;;;19.80;92.30;;;;;;4206362;28;20059;-56
2022/05/06 06:01:18;;;;;;;9.95;6.78;;;19.30;92.60;;;;;;4204953;28;20032;-69
2022/05/06 06:03:19;;;;;;;13.20;7.38;;;19.10;93.10;;;;;;4205524;28;20108;-58
2022/05/06 06:05:21;;;;;;;9.18;6.80;;;18.80;93.40;;;;;;4205737;28;20097;-59
2022/05/06 06:07:22;;;;;;;12.48;6.97;;;18.70;93.80;;;;;;4205738;28;20048;-58
2022/05/06 06:09:24;;;;;;;7.82;6.22;;;19.20;93.90;;;;;;4206222;28;20044;-57
2022/05/06 06:11:25;;;;;;;14.60;6.75;;;19.50;93.50;;;;;;4205493;28;20454;-57
2022/05/06 06:13:27;;;;;;;8.30;6.43;;;19.10;93.10;;;;;;4206161;28;20100;-55
2022/05/06 06:15:28;;;;;;;8.60;6.75;;;19.20;93.40;;;;;;4205681;28;20040;-60
2022/05/06 06:17:29;;;;;;;9.55;6.40;;;19.40;93.40;;;;;;4206462;28;20040;-56
2022/05/06 06:19:30;;;;;;;12.65;7.20;;;19.70;93.30;;;;;;4204840;28;20077;-57
2022/05/06 06:21:31;;;;;;;10.90;6.78;;;19.60;92.90;;;;;;4205905;28;20101;-57
2022/05/06 06:23:33;;;;;;;15.70;7.22;;;19.20;93.50;;;;;;4205234;28;20104;-57
2022/05/06 06:25:34;;;;;;;9.50;7.20;;;18.70;94.30;;;;;;4205379;28;20393;-55
2022/05/06 06:27:35;;;;;;;11.23;7.90;;;18.40;95.00;;;;;;4205233;28;20048;-58
2022/05/06 06:29:37;;;;;;;10.63;7.63;;;18.30;95.20;;;;;;4205541;28;20040;-56
2022/05/06 06:31:38;;;;;;;9.68;7.43;;;18.00;95.80;;;;;;4205372;28;20101;-58
2022/05/06 06:33:39;;;;;;;10.57;7.90;;;17.90;96.40;;;;;;4204905;28;20044;-54
2022/05/06 06:35:40;;;;;;;11.88;8.43;;;17.50;97.10;;;;;;4205431;28;20036;-57
2022/05/06 06:37:42;;;;;;;13.55;8.32;;;17.30;98.20;;;;;;4205145;28;20035;-51
2022/05/06 06:39:43;;;;;;;13.70;9.38;;;17.30;98.50;;;;;;4205791;28;20407;-58
2022/05/06 06:41:44;;;;;;;13.85;8.93;;;17.30;99.00;;;;;;4205076;28;20081;-58
2022/05/06 06:43:45;;;;;;;11.68;8.57;;;17.10;99.90;;;;;;4205651;28;20039;-57
2022/05/06 06:45:46;;;;;;;12.93;8.95;;;16.90;99.90;;;;;;4204504;28;20117;-52
2022/05/06 06:47:47;;;;;;;14.15;8.68;;;17.00;99.90;;;;;;4205617;28;20373;-58
2022/05/06 06:49:49;;;;;;;17.55;8.35;;;17.10;99.90;;;;;;4204317;28;20036;-55
2022/05/06 06:51:50;;;;;;;11.48;8.95;;;17.10;99.90;;;;;;4205632;28;20430;-55
2022/05/06 06:53:55;;;;;;;18.63;9.18;;;16.90;99.90;;;;;;4204621;28;20040;-54
2022/05/06 06:55:56;;;;;;;11.57;9.10;;;17.10;99.90;;;;;;4205631;28;20541;-56
2022/05/06 06:57:57;;;;;;;14.68;9.57;;;17.20;99.90;;;;;;4204934;28;20044;-58
2022/05/06 06:59:58;;;;;;;13.48;8.55;;;17.20;99.90;;;;;;4205824;28;20085;-55
2022/05/06 07:02:00;;;;;;;14.43;8.20;;;17.10;99.90;;;;;;4204571;28;20096;-60
2022/05/06 07:04:01;;;;;;;8.98;8.05;;;16.90;99.90;;;;;;4205251;28;20109;-57
2022/05/06 07:13:01;;;;;;;14.77;8.80;;;16.90;99.90;;;;;;4205751;28;20082;-56
2022/05/06 07:15:03;;;;;;;12.15;8.75;;;17.00;99.90;;;;;;4204783;28;20012;-57
2022/05/06 07:17:07;;;;;;;11.88;9.48;;;17.00;99.90;;;;;;4205452;28;20032;-70
2022/05/06 07:19:08;;;;;;;10.05;8.10;;;16.90;99.90;;;;;;4204661;28;20105;-56
2022/05/06 07:21:09;;;;;;;15.60;9.05;;;16.70;99.90;;;;;;4204719;28;20051;-58
2022/05/06 07:23:10;;;;;;;11.30;8.60;;;16.90;99.90;;;;;;4205060;28;20056;-57
2022/05/06 07:25:11;;;;;;;16.27;10.52;;;17.20;99.90;;;;;;4204753;28;20040;-59
2022/05/06 07:27:12;;;;;;;13.80;9.20;;;17.30;99.90;;;;;;4205245;28;20446;-59
2022/05/06 07:29:14;;;;;;;13.90;9.30;;;17.30;99.90;;;;;;4204541;28;20044;-58
2022/05/06 07:31:15;;;;;;;11.68;8.95;;;17.20;99.90;;;;;;4204899;28;20039;-66
2022/05/06 07:33:16;;;;;;;15.38;9.45;;;17.40;99.90;;;;;;4204270;28;20469;-57
2022/05/06 07:35:17;;;;;;;11.20;9.13;;;17.40;99.90;;;;;;4205129;28;20048;-57
2022/05/06 07:37:18;;;;;;;12.77;8.73;;;17.50;99.90;;;;;;4204608;28;20165;-66
2022/05/06 07:39:20;;;;;;;16.90;8.88;;;17.70;99.90;;;;;;4205145;28;20024;-61
2022/05/06 07:41:21;;;;;;;13.60;9.25;;;17.70;99.90;;;;;;4202765;28;20101;-56
2022/05/06 07:43:22;;;;;;;11.13;8.65;;;17.80;99.90;;;;;;4204639;28;20089;-56
2022/05/06 07:45:23;;;;;;;11.38;8.55;;;18.00;99.90;;;;;;4204222;28;20060;-57
2022/05/06 07:47:24;;;;;;;13.68;7.95;;;18.10;99.90;;;;;;4204237;28;20450;-56
2022/05/06 07:49:26;;;;;;;12.10;8.65;;;18.20;99.90;;;;;;4204219;28;20044;-59
2022/05/06 07:51:30;;;;;;;15.70;9.35;;;18.20;99.90;;;;;;4204816;28;20040;-61
2022/05/06 07:53:32;;;;;;;15.05;8.82;;;18.40;99.90;;;;;;4204502;28;20089;-65
2022/05/06 07:55:35;;;;;;;12.07;8.55;;;18.50;99.90;;;;;;4204377;28;20055;-58
2022/05/06 07:57:37;;;;;;;9.48;7.20;;;18.60;99.90;;;;;;4204801;28;20028;-57
2022/05/06 07:59:38;;;;;;;11.68;7.78;;;18.50;99.90;;;;;;4204701;28;20109;-57
2022/05/06 08:06:19;;;;;;;8.83;7.17;;;18.50;99.90;;;;;;4204699;28;20120;-57
2022/05/06 08:08:20;;;;;;;11.50;7.07;;;18.70;99.90;;;;;;4204401;28;20269;-59
2022/05/06 08:10:21;;;;;;;11.23;6.95;;;18.80;99.90;;;;;;4204635;28;20109;-66
2022/05/06 08:12:22;;;;;;;14.63;7.03;;;18.90;99.90;;;;;;4203765;28;20040;-57
2022/05/06 08:14:23;;;;;;;10.88;7.43;;;18.80;99.90;;;;;;4206998;28;20112;-58
2022/05/06 08:16:24;;;;;;;8.50;6.78;;;18.70;99.90;;;;;;4206970;28;20036;-55
2022/05/06 08:18:26;;;;;;;11.15;6.57;;;18.70;99.90;;;;;;4207811;28;20487;-59
2022/05/06 08:20:27;;;;;;;12.70;6.03;;;18.80;99.90;;;;;;4206950;28;20476;-58
2022/05/06 08:22:28;;;;;;;7.47;5.82;;;18.80;99.90;;;;;;4207804;28;20480;-60
2022/05/06 08:24:29;;;;;;;7.55;5.55;;;18.70;99.90;;;;;;4206211;28;20104;-58
2022/05/06 08:26:30;;;;;;;8.18;5.60;;;18.80;99.90;;;;;;4206333;28;20109;-64
2022/05/06 08:28:31;;;;;;;8.48;6.13;;;18.90;99.90;;;;;;4207015;28;20091;-63
2022/05/06 08:30:33;;;;;;;7.72;4.88;;;18.90;99.90;;;;;;4207732;28;20040;-58
2022/05/06 08:32:34;;;;;;;5.82;4.38;;;19.00;99.90;;;;;;4207077;28;20097;-56
2022/05/06 08:34:36;;;;;;;7.88;5.47;;;19.00;99.90;;;;;;4206786;28;20036;-55
2022/05/06 08:36:41;;;;;;;6.70;4.93;;;19.10;99.90;;;;;;4207090;28;20044;-64
2022/05/06 08:38:44;;;;;;;11.93;4.90;;;19.10;99.90;;;;;;4207083;28;20930;-64
2022/05/06 08:40:49;;;;;;;8.65;5.03;;;19.20;99.90;;;;;;4207581;28;20032;-58
2022/05/06 08:42:50;;;;;;;8.95;4.70;;;19.40;99.70;;;;;;4206473;28;20032;-62
2022/05/06 08:51:53;;;;;;;7.72;5.40;;;19.40;99.10;;;;;;4207558;28;20514;-57
2022/05/06 08:53:55;;;;;;;11.38;5.05;;;19.60;98.70;;;;;;4207257;28;20036;-58
2022/05/06 08:55:58;;;;;;;8.57;5.10;;;19.70;98.40;;;;;;4206613;28;20073;-55
2022/05/06 08:57:59;;;;;;;9.40;5.32;;;19.70;97.70;;;;;;4206682;28;20032;-58
2022/05/06 09:00:00;;;;;;;6.25;4.65;;;19.70;97.30;;;;;;4206944;28;20081;-56
2022/05/06 09:02:02;;;;;;;6.63;3.70;;;19.80;96.10;;;;;;4207033;28;20049;-60
2022/05/06 09:04:03;;;;;;;9.25;4.13;;;19.90;95.50;;;;;;4205426;28;20048;-57
2022/05/06 09:06:04;;;;;;;5.05;3.60;;;20.10;95.10;;;;;;4207516;28;20060;-58
2022/05/06 09:08:06;;;;;;;5.38;3.78;;;20.20;94.20;;;;;;4206026;28;20028;-62
2022/05/06 09:10:15;;;;;;;9.23;3.95;;;20.10;93.80;;;;;;4207313;28;20026;-65
2022/05/06 09:12:42;;;;;;;4.85;3.97;;;20.10;93.60;;;;;;4206631;28;20082;-58
2022/05/06 09:17:21;;;;;;;14.25;3.72;;;20.10;92.80;;;;;;4206946;28;20093;-70
2022/05/06 09:19:25;;;;;;;5.03;3.42;;;20.20;92.30;;;;;;4206960;28;20040;-56
2022/05/06 09:21:26;;;;;;;6.25;3.70;;;20.20;92.20;;;;;;4205392;28;20383;-58
2022/05/06 09:23:29;;;;;;;6.55;3.50;;;20.10;92.20;;;;;;4206390;28;20029;-55
2022/05/06 09:25:37;;;;;;;12.52;3.58;;;20.20;91.90;;;;;;4205218;28;21685;-57
2022/05/06 09:27:38;;;;;;;4.47;3.45;;;20.20;90.50;;;;;;4206366;28;20084;-58
2022/05/06 09:29:50;;;;;;;4.30;2.92;;;20.20;91.10;;;;;;4205749;28;20024;-60
2022/05/06 09:31:54;;;;;;;5.65;2.78;;;20.50;90.50;;;;;;4206539;28;20082;-56
2022/05/06 09:34:09;;;;;;;5.15;2.97;;;20.60;90.20;;;;;;4205065;28;20036;-58
2022/05/06 09:36:28;;;;;;;4.03;3.33;;;20.70;88.50;;;;;;4206479;28;20044;-56
2022/05/06 09:38:29;;;;;;;4.43;3.05;;;20.70;89.10;;;;;;4205312;28;20040;-58
2022/05/06 09:40:31;;;;;;;9.30;3.60;;;20.80;89.60;;;;;;4206917;28;20032;-58
2022/05/06 09:42:37;;;;;;;3.35;2.83;;;20.90;88.90;;;;;;4205318;28;20395;-59
2022/05/06 09:44:46;;;;;;;4.60;3.08;;;20.90;88.40;;;;;;4206665;28;20032;-59
2022/05/06 09:46:47;;;;;;;3.65;2.65;;;21.10;87.50;;;;;;4206078;28;20040;-66
2022/05/06 09:48:59;;;;;;;3.85;2.80;;;21.10;86.80;;;;;;4206440;28;20089;-66
2022/05/06 09:51:00;;;;;;;5.95;2.50;;;21.10;85.70;;;;;;4205665;28;20032;-66
2022/05/06 09:53:04;;;;;;;5.22;2.53;;;21.10;85.80;;;;;;4206590;28;20474;-57
2022/05/06 09:55:06;;;;;;;6.88;3.22;;;21.20;85.40;;;;;;4205443;28;20081;-59
2022/05/06 09:57:09;;;;;;;3.55;2.35;;;21.20;85.10;;;;;;4206256;28;20093;-64
2022/05/06 09:59:11;;;;;;;4.68;2.90;;;21.10;84.20;;;;;;4206009;28;20093;-54
2022/05/06 10:01:14;;;;;;;6.57;2.53;;;;;;;;;;4206003;28;20105;-63
2022/05/06 10:03:15;;;;;;;4.78;2.35;;;;;;;;;;4205979;28;20471;-66
2022/05/06 10:05:17;;;;;;;3.30;2.35;;;;;;;;;;4205032;28;20052;-61
2022/05/06 10:07:19;;;;;;;4.22;3.00;;;;;;;;;;4204789;28;20048;-56
2022/05/06 10:09:22;;;;;;;3.72;2.15;;;;;;;;;;4205273;28;20036;-66
2022/05/06 10:11:28;;;;;;;4.10;2.53;;;21.20;84.30;;;;;;4205670;28;20036;-58
2022/05/06 10:13:33;;;;;;;5.03;2.03;;;21.40;80.50;;;;;;4204984;28;20040;-54
2022/05/06 10:15:34;;;;;;;8.25;2.53;;;21.40;79.00;;;;;;4206501;28;20081;-59
2022/05/06 10:17:48;;;;;;;9.30;2.33;;;21.30;79.10;;;;;;4205088;28;20508;-59
2022/05/06 10:19:50;;;;;;;5.07;2.40;;;21.40;78.70;;;;;;4206286;28;20097;-56
2022/05/06 10:21:52;;;;;;;4.05;2.72;;;;;;;;;;4204855;28;20039;-57
2022/05/06 10:23:56;;;;;;;4.32;2.97;;;;;;;;;;4206106;28;20097;-55
2022/05/06 10:26:00;;;;;;;3.38;2.45;;;;;;;;;;4204714;28;20105;-57
2022/05/06 10:33:01;;;;;;;4.57;2.35;;;21.50;78.60;;;;;;4205959;28;20051;-58
2022/05/06 10:35:02;;;;;;;3.92;2.60;;;21.60;77.30;;;;;;4204611;28;20036;-59
2022/05/06 10:37:15;;;;;;;2.50;2.30;;;21.40;77.00;;;;;;4205222;28;20189;-60
2022/05/06 10:39:37;;;;;;;4.63;2.22;;;21.40;76.50;;;;;;4204886;28;20043;-57
2022/05/06 10:42:02;;;;;;;4.05;2.45;;;21.60;76.20;;;;;;4205764;28;20097;-61
2022/05/06 10:44:04;;;;;;;5.45;2.58;;;;;;;;;;4205107;28;20076;-59
2022/05/06 10:46:06;;;;;;;2.90;2.05;;;;;;;;;;4205234;28;20070;-59
2022/05/06 10:48:22;;;;;;;4.07;2.00;;;;;;;;;;4204492;28;20072;-59
2022/05/06 10:50:25;;;;;;;3.90;2.05;;;;;;;;;;4205508;28;20434;-59
2022/05/06 10:52:33;;;;;;;3.65;2.28;;;;;;;;;;4204601;28;20464;-59
2022/05/06 10:54:34;;;;;;;3.65;1.40;;;;;;;;;;4205718;28;20031;-62
2022/05/06 10:56:36;;;;;;;7.63;1.95;;;;;;;;;;4204914;28;20025;-65
2022/05/06 10:58:38;;;;;;;4.22;1.40;;;;;;;;;;4205313;28;20077;-55
2022/05/06 11:00:41;;;;;;;2.75;1.73;;;;;;;;;;4205575;28;20040;-60
2022/05/06 11:02:43;;;;;;;3.47;2.03;;;;;;;;;;4205006;28;20112;-56
2022/05/06 11:04:50;;;;;;;2.47;2.13;;;;;;;;;;4204497;28;20652;-68
2022/05/06 11:06:52;;;;;;;4.50;2.42;;;;;;;;;;4204914;28;20043;-57
2022/05/06 11:08:54;;;;;;;3.30;1.55;;;;;;;;;;4203957;28;20545;-59
2022/05/06 11:10:55;;;;;;;3.05;1.75;;;;;;;;;;4205208;28;20069;-60
2022/05/06 11:12:58;;;;;;;3.42;1.55;;;;;;;;;;4204178;28;20084;-57
2022/05/06 11:15:01;;;;;;;1.75;1.30;;;;;;;;;;4204837;28;20019;-60
2022/05/06 11:17:15;;;;;;;3.83;2.05;;;;;;;;;;4204606;28;20116;-58
2022/05/06 11:19:32;;;;;;;6.53;1.95;;;;;;;;;;4204426;28;20085;-68
2022/05/06 11:21:34;;;;;;;5.03;1.70;;;;;;;;;;4204547;28;20044;-60
2022/05/06 11:23:35;;;;;;;2.88;1.60;;;;;;;;;;4204788;28;20039;-59